createdAt,value
2022-11-01T00:01:56.830Z,7.57
2022-11-01T00:04:24.285Z,8.65
2022-11-01T00:06:51.322Z,5.80
2022-11-01T00:09:18.567Z,6.07
2022-11-01T00:11:45.307Z,6.30
2022-11-01T00:14:14.003Z,7.57
2022-11-01T00:16:41.353Z,6.15
2022-11-01T00:19:08.493Z,6.72
2022-11-01T00:21:35.178Z,6.75
2022-11-01T00:24:01.963Z,7.35
2022-11-01T00:26:29.150Z,6.78
2022-11-01T00:28:55.810Z,6.60
2022-11-01T00:31:22.544Z,6.30
2022-11-01T00:33:49.340Z,6.97
2022-11-01T00:36:18.737Z,7.65
2022-11-01T00:38:48.967Z,6.85
2022-11-01T00:41:21.525Z,7.93
2022-11-01T00:43:48.984Z,8.50
2022-11-01T00:46:16.334Z,7.43
2022-11-01T00:48:43.087Z,7.38
2022-11-01T00:51:09.832Z,6.60
2022-11-01T00:53:36.710Z,6.95
2022-11-01T00:56:05.563Z,7.15
2022-11-01T00:58:32.763Z,9.65
2022-11-01T01:00:59.788Z,7.57
2022-11-01T01:03:26.585Z,8.57
2022-11-01T01:05:54.255Z,8.45
2022-11-01T01:08:21.636Z,6.80
2022-11-01T01:10:48.464Z,8.15
2022-11-01T01:13:15.414Z,7.95
2022-11-01T01:15:42.774Z,6.47
2022-11-01T01:18:09.824Z,7.80
2022-11-01T01:20:36.552Z,8.27
2022-11-01T01:23:03.573Z,6.45
2022-11-01T01:25:30.297Z,6.70
2022-11-01T01:27:57.112Z,7.15
2022-11-01T01:30:24.209Z,6.55
2022-11-01T01:32:50.996Z,7.30
2022-11-01T01:35:17.769Z,7.07
2022-11-01T01:37:44.375Z,7.78
2022-11-01T01:40:11.422Z,6.93
2022-11-01T01:42:40.624Z,8.57
2022-11-01T01:45:31.397Z,7.57
2022-11-01T01:48:12.793Z,7.75
2022-11-01T01:51:15.086Z,7.07
2022-11-01T01:53:47.335Z,9.95
2022-11-01T01:56:23.967Z,9.02
2022-11-01T01:58:55.612Z,7.05
2022-11-01T02:01:22.436Z,6.28
2022-11-01T02:03:49.840Z,7.68
2022-11-01T02:06:21.911Z,6.72
2022-11-01T02:09:00.597Z,5.18
2022-11-01T02:11:27.268Z,5.70
2022-11-01T02:13:54.182Z,6.63
2022-11-01T02:16:32.946Z,5.60
2022-11-01T02:19:24.489Z,8.00
2022-11-01T02:22:21.609Z,6.32
2022-11-01T02:24:51.300Z,6.18
2022-11-01T02:27:42.420Z,6.10
2022-11-01T02:30:14.392Z,5.05
2022-11-01T02:32:56.363Z,4.63
2022-11-01T02:35:41.739Z,5.13
2022-11-01T02:38:42.563Z,4.78
2022-11-01T02:41:19.957Z,5.45
2022-11-01T02:43:59.151Z,4.85
2022-11-01T02:46:46.293Z,4.13
2022-11-01T02:49:16.117Z,4.22
2022-11-01T02:51:44.497Z,5.05
2022-11-01T02:54:22.428Z,4.40
2022-11-01T02:56:51.125Z,5.68
2022-11-01T02:59:26.442Z,4.35
2022-11-01T03:02:05.404Z,6.15
2022-11-01T03:04:32.550Z,6.05
2022-11-01T03:07:03.738Z,4.43
2022-11-01T03:09:32.257Z,4.20
2022-11-01T03:12:12.612Z,5.78
2022-11-01T03:14:39.307Z,5.07
2022-11-01T03:17:13.254Z,4.75
2022-11-01T03:20:04.812Z,4.53
2022-11-01T03:22:39.450Z,5.13
2022-11-01T03:25:31.763Z,6.55
2022-11-01T03:28:01.457Z,5.13
2022-11-01T03:30:31.612Z,5.05
2022-11-01T03:32:58.689Z,4.90
2022-11-01T03:35:30.804Z,5.35
2022-11-01T03:38:02.662Z,5.82
2022-11-01T03:40:31.093Z,3.85
2022-11-01T03:43:05.230Z,4.28
2022-11-01T03:45:35.526Z,4.50
2022-11-01T03:48:02.845Z,4.60
2022-11-01T03:50:29.866Z,5.72
2022-11-01T03:52:57.168Z,5.50
2022-11-01T03:55:24.351Z,3.85
2022-11-01T03:58:00.056Z,5.35
2022-11-01T04:00:29.015Z,6.90
2022-11-01T04:02:57.057Z,4.82
2022-11-01T04:05:25.710Z,6.15
2022-11-01T04:07:53.215Z,4.65
2022-11-01T04:10:20.749Z,4.93
2022-11-01T04:12:49.361Z,3.78
2022-11-01T04:15:36.008Z,4.40
2022-11-01T04:18:34.274Z,4.45
2022-11-01T04:21:22.076Z,4.30
2022-11-01T04:23:49.116Z,3.60
2022-11-01T04:26:22.104Z,3.60
2022-11-01T04:28:57.254Z,3.88
2022-11-01T04:31:25.327Z,4.28
2022-11-01T04:33:52.181Z,3.50
2022-11-01T04:36:18.947Z,5.05
2022-11-01T04:38:48.706Z,4.72
2022-11-01T04:41:17.825Z,4.03
2022-11-01T04:43:45.592Z,4.13
2022-11-01T04:46:12.224Z,4.53
2022-11-01T04:48:39.330Z,4.40
2022-11-01T04:51:06.266Z,4.25
2022-11-01T04:53:32.921Z,3.58
2022-11-01T04:56:01.071Z,4.13
2022-11-01T04:58:27.739Z,4.25
2022-11-01T05:00:54.433Z,2.60
2022-11-01T05:03:21.550Z,5.10
2022-11-01T05:05:48.207Z,4.53
2022-11-01T05:08:14.968Z,3.50
2022-11-01T05:10:44.683Z,2.97
2022-11-01T05:13:13.390Z,2.92
2022-11-01T05:15:53.503Z,3.33
2022-11-01T05:18:27.074Z,2.80
2022-11-01T05:20:53.798Z,2.53
2022-11-01T05:23:20.461Z,2.55
2022-11-01T05:25:47.291Z,2.28
2022-11-01T05:28:14.732Z,2.08
2022-11-01T05:30:42.438Z,2.15
2022-11-01T05:33:10.977Z,2.60
2022-11-01T05:35:37.889Z,2.28
2022-11-01T05:38:05.596Z,2.63
2022-11-01T05:40:33.222Z,2.58
2022-11-01T05:43:00.249Z,3.65
2022-11-01T05:45:27.473Z,3.92
2022-11-01T05:47:54.158Z,4.80
2022-11-01T05:50:21.450Z,3.53
2022-11-01T05:52:50.056Z,4.28
2022-11-01T05:55:16.764Z,4.53
2022-11-01T05:57:43.516Z,3.85
2022-11-01T06:00:10.974Z,4.28
2022-11-01T06:02:37.880Z,5.63
2022-11-01T06:05:04.823Z,4.93
2022-11-01T06:07:31.531Z,5.25
2022-11-01T06:09:58.188Z,2.85
2022-11-01T06:12:25.689Z,3.10
2022-11-01T06:14:52.522Z,2.47
2022-11-01T06:17:19.579Z,1.40
2022-11-01T06:19:46.230Z,1.02
2022-11-01T06:22:13.017Z,1.20
2022-11-01T06:24:39.797Z,0.85
2022-11-01T06:27:11.473Z,0.80
2022-11-01T06:29:39.413Z,0.90
2022-11-01T06:32:06.690Z,0.98
2022-11-01T06:34:33.470Z,0.90
2022-11-01T06:37:00.772Z,1.15
2022-11-01T06:39:27.594Z,1.10
2022-11-01T06:41:54.576Z,0.95
2022-11-01T06:44:21.652Z,0.80
2022-11-01T06:46:48.371Z,0.90
2022-11-01T06:49:18.149Z,0.80
2022-11-01T06:51:46.065Z,0.90
2022-11-01T06:54:12.724Z,0.80
2022-11-01T06:56:39.380Z,0.82
2022-11-01T06:59:06.509Z,0.90
2022-11-01T07:01:33.771Z,0.90
2022-11-01T07:04:01.225Z,0.90
2022-11-01T07:06:31.109Z,0.90
2022-11-01T07:09:01.520Z,0.93
2022-11-01T07:11:31.509Z,1.10
2022-11-01T07:13:59.510Z,0.95
2022-11-01T07:16:26.885Z,0.90
2022-11-01T07:18:53.922Z,1.00
2022-11-01T07:21:20.691Z,1.00
2022-11-01T07:23:47.396Z,1.00
2022-11-01T07:26:14.083Z,0.90
2022-11-01T07:28:41.491Z,1.80
2022-11-01T07:31:08.249Z,1.35
2022-11-01T07:33:35.205Z,1.30
2022-11-01T07:36:02.894Z,1.17
2022-11-01T07:38:29.581Z,1.17
2022-11-01T07:40:56.409Z,1.20
2022-11-01T07:43:23.587Z,0.95
2022-11-01T07:45:50.773Z,1.00
2022-11-01T07:48:19.267Z,1.25
2022-11-01T07:50:47.432Z,1.48
2022-11-01T07:53:19.262Z,1.38
2022-11-01T07:55:47.011Z,1.40
2022-11-01T07:58:14.881Z,1.70
2022-11-01T08:00:42.938Z,1.50
2022-11-01T08:03:19.851Z,1.20
2022-11-01T08:05:48.425Z,1.23
2022-11-01T08:08:16.313Z,1.15
2022-11-01T08:10:43.452Z,1.10
2022-11-01T08:13:21.878Z,0.90
2022-11-01T08:15:50.197Z,1.13
2022-11-01T08:18:18.370Z,1.10
2022-11-01T08:20:45.098Z,1.10
2022-11-01T08:23:11.937Z,0.90
2022-11-01T08:25:39.165Z,1.20
2022-11-01T08:28:17.818Z,1.27
2022-11-01T08:30:46.719Z,1.20
2022-11-01T08:33:13.451Z,1.23
2022-11-01T08:35:41.850Z,1.00
2022-11-01T08:38:10.794Z,1.20
2022-11-01T08:40:37.506Z,1.00
2022-11-01T08:43:06.066Z,1.10
2022-11-01T08:50:55.886Z,1.30
2022-11-01T08:56:12.560Z,1.10
2022-11-01T08:58:42.416Z,1.20
2022-11-01T09:20:11.810Z,1.17
2022-11-01T09:22:39.785Z,1.25
2022-11-01T09:25:08.858Z,1.17
2022-11-01T09:27:35.880Z,1.20
2022-11-01T09:30:06.977Z,0.95
2022-11-01T09:32:38.007Z,1.00
2022-11-01T09:35:06.905Z,1.08
2022-11-01T09:37:35.430Z,1.15
2022-11-01T09:40:06.439Z,1.02
2022-11-01T09:42:40.245Z,0.90
2022-11-01T09:48:17.308Z,1.52
2022-11-01T09:50:46.759Z,1.00
2022-11-01T09:53:25.806Z,1.00
2022-11-01T10:22:34.099Z,0.90
2022-11-01T10:54:31.153Z,1.10
2022-11-01T11:08:09.153Z,1.05
2022-11-01T11:19:23.541Z,1.35
2022-11-01T11:24:39.333Z,1.08
2022-11-01T11:30:09.029Z,1.10
2022-11-01T11:32:49.560Z,0.82
2022-11-01T11:35:26.545Z,0.93
2022-11-01T11:37:57.461Z,1.00
2022-11-01T11:40:27.049Z,0.80
2022-11-01T11:42:58.199Z,0.80
2022-11-01T11:54:11.699Z,1.08
2022-11-01T11:56:38.722Z,0.90
2022-11-01T11:59:17.065Z,0.90
2022-11-01T12:01:43.941Z,0.90
2022-11-01T12:04:16.355Z,0.80
2022-11-01T12:06:46.872Z,0.90
2022-11-01T12:09:35.566Z,0.90
2022-11-01T12:12:15.383Z,0.70
2022-11-01T12:14:42.341Z,0.70
2022-11-01T12:17:33.704Z,0.80
2022-11-01T12:20:12.938Z,0.75
2022-11-01T12:22:44.079Z,0.70
2022-11-01T12:25:21.464Z,0.90
2022-11-01T12:28:20.258Z,0.70
2022-11-01T12:30:51.220Z,0.75
2022-11-01T12:33:34.123Z,0.80
2022-11-01T12:36:01.276Z,1.05
2022-11-01T12:39:01.116Z,1.23
2022-11-01T12:41:53.757Z,0.80
2022-11-01T12:44:32.758Z,0.80
2022-11-01T12:47:11.086Z,0.90
2022-11-01T12:49:41.910Z,0.80
2022-11-01T12:52:28.178Z,0.80
2022-11-01T12:55:16.516Z,0.80
2022-11-01T12:57:46.494Z,0.80
2022-11-01T13:00:15.884Z,0.90
2022-11-01T13:03:23.460Z,1.00
2022-11-01T13:06:16.101Z,0.90
2022-11-01T13:09:17.161Z,1.25
2022-11-01T13:12:08.532Z,0.95
2022-11-01T13:14:44.832Z,0.98
2022-11-01T13:17:30.345Z,1.20
2022-11-01T13:20:25.717Z,0.90
2022-11-01T13:23:16.819Z,1.13
2022-11-01T13:25:43.604Z,1.00
2022-11-01T13:28:28.512Z,1.10
2022-11-01T13:31:17.358Z,1.27
2022-11-01T13:33:57.562Z,1.10
2022-11-01T13:36:46.595Z,1.10
2022-11-01T13:39:29.752Z,1.10
2022-11-01T13:42:03.108Z,1.00
2022-11-01T13:44:34.924Z,1.10
2022-11-01T13:47:32.759Z,1.20
2022-11-01T13:50:28.721Z,1.17
2022-11-01T13:53:03.383Z,1.33
2022-11-01T13:55:48.611Z,1.05
2022-11-01T13:58:20.095Z,1.52
2022-11-01T14:00:51.833Z,1.20
2022-11-01T14:03:29.918Z,1.52
2022-11-01T14:06:19.972Z,1.50
2022-11-01T14:08:48.501Z,1.40
2022-11-01T14:11:45.117Z,1.33
2022-11-01T14:14:30.071Z,1.20
2022-11-01T14:17:30.269Z,1.60
2022-11-01T14:19:56.869Z,1.15
2022-11-01T14:22:26.228Z,1.25
2022-11-01T14:25:23.074Z,1.35
2022-11-01T14:28:34.906Z,1.30
2022-11-01T14:31:01.918Z,1.50
2022-11-01T14:33:28.635Z,1.30
2022-11-01T14:35:58.776Z,2.05
2022-11-01T14:38:45.229Z,1.30
2022-11-01T14:41:14.408Z,1.45
2022-11-01T14:43:48.387Z,1.40
2022-11-01T14:46:27.863Z,1.63
2022-11-01T14:49:06.308Z,1.70
2022-11-01T14:51:40.031Z,1.67
2022-11-01T14:54:06.625Z,1.88
2022-11-01T14:56:40.708Z,1.77
2022-11-01T14:59:33.900Z,1.50
2022-11-01T15:02:06.590Z,1.85
2022-11-01T15:04:42.528Z,1.60
2022-11-01T15:07:23.692Z,1.90
2022-11-01T15:10:10.019Z,1.63
2022-11-01T15:12:50.272Z,1.50
2022-11-01T15:15:21.375Z,1.92
2022-11-01T15:18:01.217Z,1.60
2022-11-01T15:20:44.115Z,1.73
2022-11-01T15:23:18.316Z,1.80
2022-11-01T15:26:01.563Z,1.67
2022-11-01T15:28:44.763Z,1.70
2022-11-01T15:31:11.761Z,1.50
2022-11-01T15:33:39.232Z,1.73
2022-11-01T15:36:36.326Z,1.77
2022-11-01T15:39:16.717Z,1.77
2022-11-01T15:41:43.504Z,2.03
2022-11-01T15:44:28.193Z,1.92
2022-11-01T15:46:58.991Z,1.50
2022-11-01T15:49:47.067Z,1.50
2022-11-01T15:52:21.817Z,1.50
2022-11-01T15:55:06.999Z,1.30
2022-11-01T15:58:15.322Z,1.38
2022-11-01T16:00:47.615Z,1.17
2022-11-01T16:03:41.839Z,1.20
2022-11-01T16:06:17.721Z,1.83
2022-11-01T16:08:54.030Z,1.20
2022-11-01T16:11:25.640Z,1.30
2022-11-01T16:14:01.540Z,1.60
2022-11-01T16:16:29.199Z,1.10
2022-11-01T16:18:55.912Z,1.10
2022-11-01T16:21:28.958Z,1.13
2022-11-01T16:23:58.542Z,1.35
2022-11-01T16:26:25.601Z,1.27
2022-11-01T16:28:53.679Z,1.35
2022-11-01T16:31:26.544Z,1.55
2022-11-01T16:33:54.103Z,1.30
2022-11-01T16:36:20.887Z,1.20
2022-11-01T16:38:52.510Z,1.63
2022-11-01T16:41:22.740Z,1.40
2022-11-01T16:43:54.152Z,1.33
2022-11-01T16:46:24.463Z,1.65
2022-11-01T16:48:54.163Z,1.10
2022-11-01T16:51:25.125Z,1.13
2022-11-01T16:53:52.109Z,1.00
2022-11-01T16:56:40.987Z,1.50
2022-11-01T16:59:26.179Z,1.50
2022-11-01T17:01:55.831Z,2.00
2022-11-01T17:04:23.043Z,1.80
2022-11-01T17:06:50.646Z,1.50
2022-11-01T17:09:19.779Z,1.70
2022-11-01T17:11:51.619Z,2.38
2022-11-01T17:14:19.759Z,3.88
2022-11-01T17:16:48.140Z,2.45
2022-11-01T17:19:32.595Z,2.33
2022-11-01T17:22:02.952Z,3.08
2022-11-01T17:24:33.488Z,2.88
2022-11-01T17:27:05.356Z,2.97
2022-11-01T17:29:33.798Z,3.78
2022-11-01T17:32:01.267Z,4.47
2022-11-01T17:34:29.293Z,14.90
2022-11-01T17:36:57.652Z,10.85
2022-11-01T17:39:28.583Z,6.68
2022-11-01T17:41:55.709Z,3.40
2022-11-01T17:44:23.279Z,2.78
2022-11-01T17:46:50.064Z,2.53
2022-11-01T17:49:17.181Z,2.53
2022-11-01T17:51:44.018Z,2.03
2022-11-01T17:54:10.890Z,1.85
2022-11-01T17:56:38.156Z,1.60
2022-11-01T17:59:04.888Z,2.10
2022-11-01T18:01:32.474Z,2.50
2022-11-01T18:03:59.769Z,1.70
2022-11-01T18:06:27.226Z,11.50
2022-11-01T18:08:54.364Z,10.48
2022-11-01T18:11:30.231Z,16.00
2022-11-01T18:14:04.241Z,12.50
2022-11-01T18:17:00.541Z,13.13
2022-11-01T18:19:54.214Z,8.93
2022-11-01T18:22:29.850Z,6.78
2022-11-01T18:25:01.469Z,7.15
2022-11-01T18:27:37.709Z,4.68
2022-11-01T18:30:23.779Z,3.83
2022-11-01T18:33:26.742Z,2.90
2022-11-01T18:36:01.112Z,2.92
2022-11-01T18:38:41.519Z,2.70
2022-11-01T18:41:13.426Z,2.58
2022-11-01T18:43:40.484Z,2.47
2022-11-01T18:46:27.381Z,2.03
2022-11-01T18:49:01.253Z,2.05
2022-11-01T18:51:33.619Z,2.60
2022-11-01T18:54:09.648Z,2.77
2022-11-01T18:56:39.105Z,1.90
2022-11-01T18:59:30.160Z,2.08
2022-11-01T19:02:02.574Z,2.03
2022-11-01T19:04:31.640Z,2.00
2022-11-01T19:07:20.824Z,2.22
2022-11-01T19:09:56.892Z,2.20
2022-11-01T19:12:29.922Z,2.70
2022-11-01T19:15:02.194Z,2.42
2022-11-01T19:17:35.996Z,3.03
2022-11-01T19:20:05.537Z,2.42
2022-11-01T19:22:39.299Z,2.08
2022-11-01T19:25:25.810Z,3.13
2022-11-01T19:27:56.417Z,2.75
2022-11-01T19:30:29.106Z,2.15
2022-11-01T19:33:03.958Z,2.40
2022-11-01T19:35:30.866Z,2.88
2022-11-01T19:37:58.196Z,4.20
2022-11-01T19:40:31.015Z,3.85
2022-11-01T19:43:03.080Z,3.35
2022-11-01T19:45:33.414Z,2.88
2022-11-01T19:48:02.569Z,3.58
2022-11-01T19:50:56.101Z,2.30
2022-11-01T19:53:31.615Z,3.90
2022-11-01T19:56:06.805Z,3.88
2022-11-01T19:58:42.877Z,8.10
2022-11-01T20:01:25.701Z,4.18
2022-11-01T20:03:58.278Z,5.28
2022-11-01T20:06:32.711Z,4.07
2022-11-01T20:09:27.813Z,2.72
2022-11-01T20:11:56.123Z,2.90
2022-11-01T20:14:22.971Z,2.70
2022-11-01T20:16:52.426Z,3.15
2022-11-01T20:19:20.516Z,3.00
2022-11-01T20:21:52.478Z,2.40
2022-11-01T20:24:21.695Z,2.33
2022-11-01T20:26:48.700Z,2.28
2022-11-01T20:29:15.479Z,2.33
2022-11-01T20:31:42.235Z,2.20
2022-11-01T20:34:09.597Z,2.00
2022-11-01T20:36:36.318Z,2.15
2022-11-01T20:39:03.317Z,2.22
2022-11-01T20:41:33.233Z,2.22
2022-11-01T20:44:00.603Z,3.00
2022-11-01T20:46:39.079Z,2.08
2022-11-01T20:49:06.209Z,2.58
2022-11-01T20:51:33.121Z,2.65
2022-11-01T20:54:00.280Z,3.65
2022-11-01T20:56:27.064Z,2.55
2022-11-01T20:58:53.886Z,2.38
2022-11-01T21:01:22.119Z,2.85
2022-11-01T21:03:57.866Z,2.53
2022-11-01T21:06:31.647Z,3.15
2022-11-01T21:09:04.598Z,2.97
2022-11-01T21:11:44.086Z,4.00
2022-11-01T21:14:18.337Z,2.65
2022-11-01T21:19:55.817Z,2.80
2022-11-01T21:22:25.651Z,2.75
2022-11-01T21:24:52.688Z,3.70
2022-11-01T21:30:20.318Z,3.20
2022-11-01T21:32:50.163Z,2.60
2022-11-01T21:35:20.083Z,2.88
2022-11-01T21:37:51.384Z,2.05
2022-11-01T21:40:29.760Z,2.20
2022-11-01T21:42:58.310Z,2.58
2022-11-01T21:45:30.976Z,2.22
2022-11-01T21:48:15.673Z,2.28
2022-11-01T21:50:45.114Z,2.05
2022-11-01T21:53:11.774Z,2.70
2022-11-01T21:55:38.509Z,2.53
2022-11-01T21:58:05.138Z,2.80
2022-11-01T22:00:31.856Z,2.70
2022-11-01T22:02:58.497Z,2.63
2022-11-01T22:05:25.116Z,2.53
2022-11-01T22:07:51.755Z,2.58
2022-11-01T22:10:18.595Z,2.40
2022-11-01T22:12:45.264Z,1.90
2022-11-01T22:15:11.897Z,2.50
2022-11-01T22:17:38.552Z,1.52
2022-11-01T22:20:05.753Z,2.58
2022-11-01T22:22:32.420Z,1.85
2022-11-01T22:24:59.175Z,2.33
2022-11-01T22:27:25.831Z,2.53
2022-11-01T22:29:52.449Z,2.22
2022-11-01T22:32:19.091Z,2.30
2022-11-01T22:34:46.303Z,2.33
2022-11-01T22:37:13.537Z,2.78
2022-11-01T22:39:40.212Z,2.47
2022-11-01T22:42:14.817Z,2.92
2022-11-01T22:44:45.572Z,2.10
2022-11-01T22:47:30.663Z,1.88
2022-11-01T22:50:02.859Z,2.10
2022-11-01T22:52:35.054Z,2.47
2022-11-01T22:55:07.969Z,2.30
2022-11-01T22:57:40.511Z,2.00
2022-11-01T23:00:27.941Z,2.55
2022-11-01T23:03:22.668Z,2.25
2022-11-01T23:05:57.008Z,1.92
2022-11-01T23:08:26.216Z,2.22
2022-11-01T23:10:53.310Z,2.53
2022-11-01T23:13:48.086Z,1.77
2022-11-01T23:16:27.546Z,1.73
2022-11-01T23:18:57.729Z,1.90
2022-11-01T23:21:24.807Z,2.20
2022-11-01T23:23:51.516Z,2.58
2022-11-01T23:26:19.782Z,3.10
2022-11-01T23:28:49.738Z,1.88
2022-11-01T23:31:16.892Z,1.50
2022-11-01T23:33:46.104Z,1.67
2022-11-01T23:36:33.553Z,1.92
2022-11-01T23:39:03.650Z,1.85
2022-11-01T23:41:36.721Z,2.35
2022-11-01T23:44:30.078Z,1.88
2022-11-01T23:47:15.093Z,2.55
2022-11-01T23:49:42.774Z,2.20
2022-11-01T23:52:44.583Z,2.85
2022-11-01T23:55:31.469Z,2.45
2022-11-01T23:58:12.204Z,2.30
